sensor_id;sensor_type;location;lat;lon;timestamp;P1;durP1;ratioP1;P2;durP2;ratioP2
7027;SDS011;3555;53.248;10.336;2024-02-26T00:01:49;9.53;;;6.07;;
7027;SDS011;3555;53.248;10.336;2024-02-26T00:04:17;8.10;;;6.23;;
7027;SDS011;3555;53.248;10.336;2024-02-26T00:06:44;11.20;;;7.00;;
7027;SDS011;3555;53.248;10.336;2024-02-26T00:09:11;7.93;;;6.00;;
7027;SDS011;3555;53.248;10.336;2024-02-26T00:11:38;8.90;;;6.37;;
7027;SDS011;3555;53.248;10.336;2024-02-26T00:14:05;9.23;;;6.60;;
7027;SDS011;3555;53.248;10.336;2024-02-26T00:16:32;8.73;;;6.50;;
7027;SDS011;3555;53.248;10.336;2024-02-26T00:18:58;9.03;;;6.40;;
7027;SDS011;3555;53.248;10.336;2024-02-26T00:21:27;7.83;;;6.50;;
7027;SDS011;3555;53.248;10.336;2024-02-26T00:23:54;8.37;;;6.40;;
7027;SDS011;3555;53.248;10.336;2024-02-26T00:26:21;9.13;;;6.57;;
7027;SDS011;3555;53.248;10.336;2024-02-26T00:28:47;8.37;;;7.00;;
7027;SDS011;3555;53.248;10.336;2024-02-26T00:31:14;8.93;;;6.70;;
7027;SDS011;3555;53.248;10.336;2024-02-26T00:33:41;7.67;;;6.00;;
7027;SDS011;3555;53.248;10.336;2024-02-26T00:36:08;10.10;;;6.60;;
7027;SDS011;3555;53.248;10.336;2024-02-26T00:38:36;8.73;;;6.67;;
7027;SDS011;3555;53.248;10.336;2024-02-26T00:41:04;11.03;;;6.87;;
7027;SDS011;3555;53.248;10.336;2024-02-26T00:43:31;10.20;;;7.00;;
7027;SDS011;3555;53.248;10.336;2024-02-26T00:45:58;10.57;;;7.00;;
7027;SDS011;3555;53.248;10.336;2024-02-26T00:48:25;8.30;;;7.03;;
7027;SDS011;3555;53.248;10.336;2024-02-26T00:50:52;8.70;;;6.73;;
7027;SDS011;3555;53.248;10.336;2024-02-26T00:53:19;9.37;;;6.67;;
7027;SDS011;3555;53.248;10.336;2024-02-26T00:55:47;10.00;;;6.90;;
7027;SDS011;3555;53.248;10.336;2024-02-26T00:58:14;8.30;;;6.77;;
7027;SDS011;3555;53.248;10.336;2024-02-26T01:00:41;8.00;;;6.30;;
7027;SDS011;3555;53.248;10.336;2024-02-26T01:03:08;7.77;;;6.27;;
7027;SDS011;3555;53.248;10.336;2024-02-26T01:05:35;7.70;;;6.20;;
7027;SDS011;3555;53.248;10.336;2024-02-26T01:08:03;8.93;;;6.43;;
7027;SDS011;3555;53.248;10.336;2024-02-26T01:10:30;8.60;;;6.57;;
7027;SDS011;3555;53.248;10.336;2024-02-26T01:12:58;8.80;;;6.40;;
7027;SDS011;3555;53.248;10.336;2024-02-26T01:15:25;7.43;;;5.77;;
7027;SDS011;3555;53.248;10.336;2024-02-26T01:17:52;6.17;;;5.17;;
7027;SDS011;3555;53.248;10.336;2024-02-26T01:20:19;5.93;;;4.57;;
7027;SDS011;3555;53.248;10.336;2024-02-26T01:22:46;6.07;;;5.07;;
7027;SDS011;3555;53.248;10.336;2024-02-26T01:25:13;6.63;;;5.20;;
7027;SDS011;3555;53.248;10.336;2024-02-26T01:27:40;7.50;;;5.80;;
7027;SDS011;3555;53.248;10.336;2024-02-26T01:30:10;6.83;;;5.80;;
7027;SDS011;3555;53.248;10.336;2024-02-26T01:32:37;7.40;;;5.33;;
7027;SDS011;3555;53.248;10.336;2024-02-26T01:35:05;9.20;;;6.50;;
7027;SDS011;3555;53.248;10.336;2024-02-26T01:37:35;9.70;;;6.67;;
7027;SDS011;3555;53.248;10.336;2024-02-26T01:40:01;14.20;;;8.43;;
7027;SDS011;3555;53.248;10.336;2024-02-26T01:42:29;12.47;;;8.20;;
7027;SDS011;3555;53.248;10.336;2024-02-26T01:44:57;11.47;;;7.57;;
7027;SDS011;3555;53.248;10.336;2024-02-26T01:47:25;8.97;;;6.60;;
7027;SDS011;3555;53.248;10.336;2024-02-26T01:49:53;10.73;;;7.03;;
7027;SDS011;3555;53.248;10.336;2024-02-26T01:52:21;8.27;;;5.83;;
7027;SDS011;3555;53.248;10.336;2024-02-26T01:54:48;8.00;;;5.53;;
7027;SDS011;3555;53.248;10.336;2024-02-26T01:57:16;7.10;;;5.03;;
7027;SDS011;3555;53.248;10.336;2024-02-26T01:59:43;6.67;;;5.17;;
7027;SDS011;3555;53.248;10.336;2024-02-26T02:02:10;5.00;;;4.37;;
7027;SDS011;3555;53.248;10.336;2024-02-26T02:04:40;6.07;;;4.33;;
7027;SDS011;3555;53.248;10.336;2024-02-26T02:07:07;6.00;;;4.53;;
7027;SDS011;3555;53.248;10.336;2024-02-26T02:09:34;4.57;;;3.90;;
7027;SDS011;3555;53.248;10.336;2024-02-26T02:12:01;5.23;;;4.20;;
7027;SDS011;3555;53.248;10.336;2024-02-26T02:14:28;5.40;;;4.13;;
7027;SDS011;3555;53.248;10.336;2024-02-26T02:16:55;5.23;;;4.57;;
7027;SDS011;3555;53.248;10.336;2024-02-26T02:19:22;5.97;;;4.20;;
7027;SDS011;3555;53.248;10.336;2024-02-26T02:21:50;5.13;;;4.13;;
7027;SDS011;3555;53.248;10.336;2024-02-26T02:24:17;5.53;;;4.23;;
7027;SDS011;3555;53.248;10.336;2024-02-26T02:26:44;5.60;;;4.03;;
7027;SDS011;3555;53.248;10.336;2024-02-26T02:29:11;5.63;;;4.33;;
7027;SDS011;3555;53.248;10.336;2024-02-26T02:31:39;4.37;;;3.97;;
7027;SDS011;3555;53.248;10.336;2024-02-26T02:34:06;4.93;;;4.00;;
7027;SDS011;3555;53.248;10.336;2024-02-26T02:36:34;5.03;;;4.30;;
7027;SDS011;3555;53.248;10.336;2024-02-26T02:39:02;4.23;;;3.83;;
7027;SDS011;3555;53.248;10.336;2024-02-26T02:41:29;4.40;;;3.90;;
7027;SDS011;3555;53.248;10.336;2024-02-26T02:43:56;4.70;;;3.90;;
7027;SDS011;3555;53.248;10.336;2024-02-26T02:46:23;6.77;;;3.83;;
7027;SDS011;3555;53.248;10.336;2024-02-26T02:48:50;4.50;;;3.90;;
7027;SDS011;3555;53.248;10.336;2024-02-26T02:51:17;4.77;;;3.70;;
7027;SDS011;3555;53.248;10.336;2024-02-26T02:53:43;6.30;;;4.20;;
7027;SDS011;3555;53.248;10.336;2024-02-26T02:56:12;5.10;;;4.00;;
7027;SDS011;3555;53.248;10.336;2024-02-26T02:58:38;4.53;;;3.40;;
7027;SDS011;3555;53.248;10.336;2024-02-26T03:01:05;4.17;;;3.70;;
7027;SDS011;3555;53.248;10.336;2024-02-26T03:03:32;3.83;;;3.40;;
7027;SDS011;3555;53.248;10.336;2024-02-26T03:05:59;4.67;;;3.50;;
7027;SDS011;3555;53.248;10.336;2024-02-26T03:08:26;3.80;;;3.30;;
7027;SDS011;3555;53.248;10.336;2024-02-26T03:10:52;3.80;;;3.27;;
7027;SDS011;3555;53.248;10.336;2024-02-26T03:13:21;3.97;;;3.50;;
7027;SDS011;3555;53.248;10.336;2024-02-26T03:15:48;4.10;;;3.53;;
7027;SDS011;3555;53.248;10.336;2024-02-26T03:18:14;6.60;;;3.87;;
7027;SDS011;3555;53.248;10.336;2024-02-26T03:20:41;4.27;;;3.67;;
7027;SDS011;3555;53.248;10.336;2024-02-26T03:23:08;4.50;;;3.90;;
7027;SDS011;3555;53.248;10.336;2024-02-26T03:25:37;4.13;;;3.73;;
7027;SDS011;3555;53.248;10.336;2024-02-26T03:28:05;5.80;;;3.90;;
7027;SDS011;3555;53.248;10.336;2024-02-26T03:30:33;3.87;;;3.47;;
7027;SDS011;3555;53.248;10.336;2024-02-26T03:33:00;4.37;;;3.67;;
7027;SDS011;3555;53.248;10.336;2024-02-26T03:35:27;4.90;;;3.33;;
7027;SDS011;3555;53.248;10.336;2024-02-26T03:37:54;4.13;;;3.73;;
7027;SDS011;3555;53.248;10.336;2024-02-26T03:40:21;4.93;;;3.70;;
7027;SDS011;3555;53.248;10.336;2024-02-26T03:42:48;4.87;;;3.90;;
7027;SDS011;3555;53.248;10.336;2024-02-26T03:45:15;4.43;;;3.93;;
7027;SDS011;3555;53.248;10.336;2024-02-26T03:47:43;4.93;;;4.07;;
7027;SDS011;3555;53.248;10.336;2024-02-26T03:50:10;4.77;;;4.07;;
7027;SDS011;3555;53.248;10.336;2024-02-26T03:52:37;4.60;;;3.70;;
7027;SDS011;3555;53.248;10.336;2024-02-26T03:55:04;4.63;;;3.87;;
7027;SDS011;3555;53.248;10.336;2024-02-26T03:57:31;3.87;;;3.47;;
7027;SDS011;3555;53.248;10.336;2024-02-26T03:59:57;4.63;;;3.73;;
7027;SDS011;3555;53.248;10.336;2024-02-26T04:02:24;5.20;;;4.20;;
7027;SDS011;3555;53.248;10.336;2024-02-26T04:04:53;5.77;;;4.00;;
7027;SDS011;3555;53.248;10.336;2024-02-26T04:07:20;4.00;;;3.37;;
7027;SDS011;3555;53.248;10.336;2024-02-26T04:09:47;4.50;;;3.77;;
7027;SDS011;3555;53.248;10.336;2024-02-26T04:12:13;4.07;;;3.53;;
7027;SDS011;3555;53.248;10.336;2024-02-26T04:14:40;5.53;;;3.73;;
7027;SDS011;3555;53.248;10.336;2024-02-26T04:17:07;4.43;;;3.97;;
7027;SDS011;3555;53.248;10.336;2024-02-26T04:19:34;4.17;;;3.77;;
7027;SDS011;3555;53.248;10.336;2024-02-26T04:22:02;5.00;;;4.20;;
7027;SDS011;3555;53.248;10.336;2024-02-26T04:24:30;4.50;;;3.60;;
7027;SDS011;3555;53.248;10.336;2024-02-26T04:26:57;4.20;;;3.77;;
7027;SDS011;3555;53.248;10.336;2024-02-26T04:29:24;4.13;;;3.60;;
7027;SDS011;3555;53.248;10.336;2024-02-26T04:31:50;4.23;;;3.33;;
7027;SDS011;3555;53.248;10.336;2024-02-26T04:34:17;4.33;;;3.73;;
7027;SDS011;3555;53.248;10.336;2024-02-26T04:36:44;4.20;;;3.53;;
7027;SDS011;3555;53.248;10.336;2024-02-26T04:39:14;5.03;;;3.73;;
7027;SDS011;3555;53.248;10.336;2024-02-26T04:41:41;4.73;;;4.10;;
7027;SDS011;3555;53.248;10.336;2024-02-26T04:44:08;4.97;;;3.90;;
7027;SDS011;3555;53.248;10.336;2024-02-26T04:46:35;4.77;;;3.73;;
7027;SDS011;3555;53.248;10.336;2024-02-26T04:49:01;4.93;;;4.07;;
7027;SDS011;3555;53.248;10.336;2024-02-26T04:51:28;9.57;;;3.70;;
7027;SDS011;3555;53.248;10.336;2024-02-26T04:53:55;5.23;;;3.70;;
7027;SDS011;3555;53.248;10.336;2024-02-26T04:56:23;4.00;;;3.37;;
7027;SDS011;3555;53.248;10.336;2024-02-26T04:58:51;7.10;;;3.30;;
7027;SDS011;3555;53.248;10.336;2024-02-26T05:01:18;5.13;;;4.03;;
7027;SDS011;3555;53.248;10.336;2024-02-26T05:03:46;4.63;;;3.83;;
7027;SDS011;3555;53.248;10.336;2024-02-26T05:06:12;32.00;;;11.73;;
7027;SDS011;3555;53.248;10.336;2024-02-26T05:08:40;41.13;;;14.37;;
7027;SDS011;3555;53.248;10.336;2024-02-26T05:11:06;31.67;;;11.87;;
7027;SDS011;3555;53.248;10.336;2024-02-26T05:13:35;18.27;;;8.17;;
7027;SDS011;3555;53.248;10.336;2024-02-26T05:16:02;10.40;;;5.43;;
7027;SDS011;3555;53.248;10.336;2024-02-26T05:18:29;11.00;;;5.90;;
7027;SDS011;3555;53.248;10.336;2024-02-26T05:20:56;20.57;;;8.17;;
7027;SDS011;3555;53.248;10.336;2024-02-26T05:23:22;13.97;;;6.97;;
7027;SDS011;3555;53.248;10.336;2024-02-26T05:25:49;14.57;;;5.97;;
7027;SDS011;3555;53.248;10.336;2024-02-26T05:28:17;10.07;;;5.93;;
7027;SDS011;3555;53.248;10.336;2024-02-26T05:30:46;10.33;;;5.80;;
7027;SDS011;3555;53.248;10.336;2024-02-26T05:33:13;11.53;;;6.20;;
7027;SDS011;3555;53.248;10.336;2024-02-26T05:35:40;11.53;;;6.17;;
7027;SDS011;3555;53.248;10.336;2024-02-26T05:38:07;13.67;;;7.50;;
7027;SDS011;3555;53.248;10.336;2024-02-26T05:40:34;14.17;;;7.37;;
7027;SDS011;3555;53.248;10.336;2024-02-26T05:43:01;15.30;;;7.87;;
7027;SDS011;3555;53.248;10.336;2024-02-26T05:45:27;23.60;;;11.40;;
7027;SDS011;3555;53.248;10.336;2024-02-26T05:47:56;26.93;;;12.60;;
7027;SDS011;3555;53.248;10.336;2024-02-26T05:50:22;26.47;;;13.23;;
7027;SDS011;3555;53.248;10.336;2024-02-26T05:52:50;26.87;;;13.37;;
7027;SDS011;3555;53.248;10.336;2024-02-26T05:55:17;28.53;;;13.47;;
7027;SDS011;3555;53.248;10.336;2024-02-26T05:57:43;38.40;;;16.67;;
7027;SDS011;3555;53.248;10.336;2024-02-26T06:00:11;34.90;;;17.67;;
7027;SDS011;3555;53.248;10.336;2024-02-26T06:02:38;26.77;;;12.67;;
7027;SDS011;3555;53.248;10.336;2024-02-26T06:05:07;22.93;;;11.03;;
7027;SDS011;3555;53.248;10.336;2024-02-26T06:07:34;14.17;;;8.40;;
7027;SDS011;3555;53.248;10.336;2024-02-26T06:10:01;8.70;;;5.83;;
7027;SDS011;3555;53.248;10.336;2024-02-26T06:12:29;7.43;;;5.40;;
7027;SDS011;3555;53.248;10.336;2024-02-26T06:14:57;6.90;;;4.63;;
7027;SDS011;3555;53.248;10.336;2024-02-26T06:17:26;7.83;;;4.37;;
7027;SDS011;3555;53.248;10.336;2024-02-26T06:19:53;5.43;;;4.30;;
7027;SDS011;3555;53.248;10.336;2024-02-26T06:22:21;6.43;;;5.00;;
7027;SDS011;3555;53.248;10.336;2024-02-26T06:24:48;5.37;;;4.23;;
7027;SDS011;3555;53.248;10.336;2024-02-26T06:27:14;5.93;;;4.57;;
7027;SDS011;3555;53.248;10.336;2024-02-26T06:29:41;7.30;;;4.93;;
7027;SDS011;3555;53.248;10.336;2024-02-26T06:32:08;7.13;;;4.43;;
7027;SDS011;3555;53.248;10.336;2024-02-26T06:34:35;5.67;;;4.20;;
7027;SDS011;3555;53.248;10.336;2024-02-26T06:37:03;5.13;;;3.83;;
7027;SDS011;3555;53.248;10.336;2024-02-26T06:39:31;5.20;;;4.17;;
7027;SDS011;3555;53.248;10.336;2024-02-26T06:41:58;3.90;;;3.50;;
7027;SDS011;3555;53.248;10.336;2024-02-26T06:44:26;4.93;;;3.43;;
7027;SDS011;3555;53.248;10.336;2024-02-26T06:46:56;4.13;;;3.60;;
7027;SDS011;3555;53.248;10.336;2024-02-26T06:49:24;4.80;;;3.87;;
7027;SDS011;3555;53.248;10.336;2024-02-26T06:51:51;4.63;;;3.93;;
7027;SDS011;3555;53.248;10.336;2024-02-26T06:54:18;5.20;;;4.07;;
7027;SDS011;3555;53.248;10.336;2024-02-26T06:56:46;6.00;;;4.10;;
7027;SDS011;3555;53.248;10.336;2024-02-26T06:59:13;5.00;;;4.10;;
7027;SDS011;3555;53.248;10.336;2024-02-26T07:01:40;4.73;;;3.97;;
7027;SDS011;3555;53.248;10.336;2024-02-26T07:04:07;5.60;;;3.90;;
7027;SDS011;3555;53.248;10.336;2024-02-26T07:06:35;6.17;;;4.33;;
7027;SDS011;3555;53.248;10.336;2024-02-26T07:09:03;4.67;;;3.97;;
7027;SDS011;3555;53.248;10.336;2024-02-26T07:11:30;5.57;;;4.20;;
7027;SDS011;3555;53.248;10.336;2024-02-26T07:13:58;4.53;;;3.63;;
7027;SDS011;3555;53.248;10.336;2024-02-26T07:16:26;4.27;;;3.63;;
7027;SDS011;3555;53.248;10.336;2024-02-26T07:18:53;4.30;;;3.90;;
7027;SDS011;3555;53.248;10.336;2024-02-26T07:21:20;3.90;;;3.50;;
7027;SDS011;3555;53.248;10.336;2024-02-26T07:23:46;4.80;;;3.83;;
7027;SDS011;3555;53.248;10.336;2024-02-26T07:26:13;4.80;;;3.90;;
7027;SDS011;3555;53.248;10.336;2024-02-26T07:28:42;5.90;;;4.10;;
7027;SDS011;3555;53.248;10.336;2024-02-26T07:31:10;4.70;;;3.83;;
7027;SDS011;3555;53.248;10.336;2024-02-26T07:33:37;4.07;;;3.50;;
7027;SDS011;3555;53.248;10.336;2024-02-26T07:36:04;5.50;;;3.83;;
7027;SDS011;3555;53.248;10.336;2024-02-26T07:38:31;4.43;;;3.90;;
7027;SDS011;3555;53.248;10.336;2024-02-26T07:40:58;4.37;;;3.97;;
7027;SDS011;3555;53.248;10.336;2024-02-26T07:43:25;4.53;;;3.90;;
7027;SDS011;3555;53.248;10.336;2024-02-26T07:45:52;5.03;;;4.00;;
7027;SDS011;3555;53.248;10.336;2024-02-26T07:48:20;4.43;;;4.03;;
7027;SDS011;3555;53.248;10.336;2024-02-26T07:50:47;4.50;;;3.53;;
7027;SDS011;3555;53.248;10.336;2024-02-26T07:53:13;6.03;;;4.07;;
7027;SDS011;3555;53.248;10.336;2024-02-26T07:55:40;4.07;;;3.60;;
7027;SDS011;3555;53.248;10.336;2024-02-26T07:58:07;5.00;;;4.30;;
7027;SDS011;3555;53.248;10.336;2024-02-26T08:00:34;4.27;;;3.87;;
7027;SDS011;3555;53.248;10.336;2024-02-26T08:03:01;4.70;;;4.10;;
7027;SDS011;3555;53.248;10.336;2024-02-26T08:05:30;5.77;;;4.10;;
7027;SDS011;3555;53.248;10.336;2024-02-26T08:07:56;8.30;;;5.67;;
7027;SDS011;3555;53.248;10.336;2024-02-26T08:10:23;10.43;;;6.20;;
7027;SDS011;3555;53.248;10.336;2024-02-26T08:12:50;6.23;;;5.43;;
7027;SDS011;3555;53.248;10.336;2024-02-26T08:15:17;8.33;;;5.93;;
7027;SDS011;3555;53.248;10.336;2024-02-26T08:17:44;6.00;;;4.63;;
7027;SDS011;3555;53.248;10.336;2024-02-26T08:20:12;6.03;;;4.97;;
7027;SDS011;3555;53.248;10.336;2024-02-26T08:22:41;6.83;;;4.97;;
7027;SDS011;3555;53.248;10.336;2024-02-26T08:25:08;5.80;;;4.30;;
7027;SDS011;3555;53.248;10.336;2024-02-26T08:27:35;4.77;;;4.03;;
7027;SDS011;3555;53.248;10.336;2024-02-26T08:30:02;5.30;;;4.60;;
7027;SDS011;3555;53.248;10.336;2024-02-26T08:32:30;6.13;;;4.33;;
7027;SDS011;3555;53.248;10.336;2024-02-26T08:34:57;7.13;;;5.00;;
7027;SDS011;3555;53.248;10.336;2024-02-26T08:37:24;7.43;;;4.83;;
7027;SDS011;3555;53.248;10.336;2024-02-26T08:39:52;5.23;;;4.10;;
7027;SDS011;3555;53.248;10.336;2024-02-26T08:42:19;8.97;;;4.47;;
7027;SDS011;3555;53.248;10.336;2024-02-26T08:44:46;5.87;;;3.93;;
7027;SDS011;3555;53.248;10.336;2024-02-26T08:47:13;6.33;;;4.23;;
7027;SDS011;3555;53.248;10.336;2024-02-26T08:49:42;6.67;;;4.70;;
7027;SDS011;3555;53.248;10.336;2024-02-26T08:52:10;4.93;;;4.00;;
7027;SDS011;3555;53.248;10.336;2024-02-26T08:54:37;4.73;;;4.03;;
7027;SDS011;3555;53.248;10.336;2024-02-26T08:57:05;5.00;;;4.07;;
7027;SDS011;3555;53.248;10.336;2024-02-26T08:59:32;4.10;;;3.70;;
7027;SDS011;3555;53.248;10.336;2024-02-26T09:01:59;5.13;;;4.20;;
7027;SDS011;3555;53.248;10.336;2024-02-26T09:04:25;6.17;;;3.90;;
7027;SDS011;3555;53.248;10.336;2024-02-26T09:06:52;5.07;;;4.10;;
7027;SDS011;3555;53.248;10.336;2024-02-26T09:09:19;5.33;;;4.00;;
7027;SDS011;3555;53.248;10.336;2024-02-26T09:11:47;5.73;;;4.40;;
7027;SDS011;3555;53.248;10.336;2024-02-26T09:14:18;5.43;;;4.30;;
7027;SDS011;3555;53.248;10.336;2024-02-26T09:16:44;4.27;;;3.87;;
7027;SDS011;3555;53.248;10.336;2024-02-26T09:19:13;4.50;;;3.93;;
7027;SDS011;3555;53.248;10.336;2024-02-26T09:21:42;5.07;;;4.13;;
7027;SDS011;3555;53.248;10.336;2024-02-26T09:24:09;4.53;;;3.60;;
7027;SDS011;3555;53.248;10.336;2024-02-26T09:26:36;6.10;;;4.67;;
7027;SDS011;3555;53.248;10.336;2024-02-26T09:29:03;6.23;;;4.40;;
7027;SDS011;3555;53.248;10.336;2024-02-26T09:31:32;5.33;;;4.43;;
7027;SDS011;3555;53.248;10.336;2024-02-26T09:33:59;4.87;;;4.27;;
7027;SDS011;3555;53.248;10.336;2024-02-26T09:36:26;6.03;;;4.30;;
7027;SDS011;3555;53.248;10.336;2024-02-26T09:38:53;6.40;;;5.60;;
7027;SDS011;3555;53.248;10.336;2024-02-26T09:41:19;6.20;;;4.73;;
7027;SDS011;3555;53.248;10.336;2024-02-26T09:43:46;6.20;;;4.83;;
7027;SDS011;3555;53.248;10.336;2024-02-26T09:46:16;7.60;;;5.47;;
7027;SDS011;3555;53.248;10.336;2024-02-26T09:48:46;6.53;;;5.37;;
7027;SDS011;3555;53.248;10.336;2024-02-26T09:51:14;7.13;;;5.13;;
7027;SDS011;3555;53.248;10.336;2024-02-26T09:53:43;6.07;;;4.80;;
7027;SDS011;3555;53.248;10.336;2024-02-26T09:56:11;6.53;;;4.87;;
7027;SDS011;3555;53.248;10.336;2024-02-26T09:58:39;5.90;;;5.23;;
7027;SDS011;3555;53.248;10.336;2024-02-26T10:01:11;6.20;;;4.40;;
7027;SDS011;3555;53.248;10.336;2024-02-26T10:03:42;5.57;;;4.03;;
7027;SDS011;3555;53.248;10.336;2024-02-26T10:06:12;5.20;;;4.63;;
7027;SDS011;3555;53.248;10.336;2024-02-26T10:08:39;5.57;;;4.67;;
7027;SDS011;3555;53.248;10.336;2024-02-26T10:11:06;6.10;;;5.07;;
7027;SDS011;3555;53.248;10.336;2024-02-26T10:13:34;6.40;;;4.57;;
7027;SDS011;3555;53.248;10.336;2024-02-26T10:16:01;5.20;;;4.67;;
7027;SDS011;3555;53.248;10.336;2024-02-26T10:21:17;6.37;;;4.83;;
7027;SDS011;3555;53.248;10.336;2024-02-26T10:23:44;5.80;;;4.53;;
7027;SDS011;3555;53.248;10.336;2024-02-26T10:26:12;5.27;;;4.37;;
7027;SDS011;3555;53.248;10.336;2024-02-26T10:28:41;5.97;;;4.50;;
7027;SDS011;3555;53.248;10.336;2024-02-26T10:31:09;5.73;;;4.63;;
7027;SDS011;3555;53.248;10.336;2024-02-26T10:33:37;4.53;;;3.90;;
7027;SDS011;3555;53.248;10.336;2024-02-26T10:36:04;5.40;;;4.47;;
7027;SDS011;3555;53.248;10.336;2024-02-26T10:38:34;4.63;;;4.10;;
7027;SDS011;3555;53.248;10.336;2024-02-26T10:41:01;4.83;;;4.20;;
7027;SDS011;3555;53.248;10.336;2024-02-26T10:43:29;5.33;;;4.57;;
7027;SDS011;3555;53.248;10.336;2024-02-26T10:45:55;4.50;;;4.10;;
7027;SDS011;3555;53.248;10.336;2024-02-26T10:48:22;7.03;;;4.30;;
7027;SDS011;3555;53.248;10.336;2024-02-26T10:50:49;4.67;;;4.13;;
7027;SDS011;3555;53.248;10.336;2024-02-26T10:53:19;5.80;;;3.93;;
7027;SDS011;3555;53.248;10.336;2024-02-26T10:55:49;4.27;;;3.87;;
7027;SDS011;3555;53.248;10.336;2024-02-26T10:58:20;4.57;;;3.67;;
7027;SDS011;3555;53.248;10.336;2024-02-26T11:00:50;4.63;;;3.80;;
7027;SDS011;3555;53.248;10.336;2024-02-26T11:03:17;4.97;;;3.40;;
7027;SDS011;3555;53.248;10.336;2024-02-26T11:05:46;5.53;;;3.47;;
7027;SDS011;3555;53.248;10.336;2024-02-26T11:08:14;4.40;;;3.67;;
7027;SDS011;3555;53.248;10.336;2024-02-26T11:10:41;6.10;;;4.30;;
7027;SDS011;3555;53.248;10.336;2024-02-26T11:13:10;4.57;;;3.87;;
7027;SDS011;3555;53.248;10.336;2024-02-26T11:15:41;5.40;;;3.70;;
7027;SDS011;3555;53.248;10.336;2024-02-26T11:18:10;3.73;;;3.27;;
7027;SDS011;3555;53.248;10.336;2024-02-26T11:20:39;4.03;;;3.60;;
7027;SDS011;3555;53.248;10.336;2024-02-26T11:23:07;3.90;;;3.50;;
7027;SDS011;3555;53.248;10.336;2024-02-26T11:25:34;3.80;;;3.27;;
7027;SDS011;3555;53.248;10.336;2024-02-26T11:28:03;4.03;;;3.13;;
7027;SDS011;3555;53.248;10.336;2024-02-26T11:30:36;3.83;;;3.30;;
7027;SDS011;3555;53.248;10.336;2024-02-26T11:33:06;4.60;;;3.00;;
7027;SDS011;3555;53.248;10.336;2024-02-26T11:35:36;5.70;;;3.03;;
7027;SDS011;3555;53.248;10.336;2024-02-26T11:38:03;4.87;;;2.77;;
7027;SDS011;3555;53.248;10.336;2024-02-26T11:40:31;4.93;;;3.73;;
7027;SDS011;3555;53.248;10.336;2024-02-26T11:42:59;3.70;;;2.87;;
7027;SDS011;3555;53.248;10.336;2024-02-26T11:45:48;3.17;;;2.87;;
7027;SDS011;3555;53.248;10.336;2024-02-26T11:48:20;3.07;;;2.60;;
7027;SDS011;3555;53.248;10.336;2024-02-26T11:50:48;2.83;;;2.50;;
7027;SDS011;3555;53.248;10.336;2024-02-26T11:53:22;3.50;;;2.80;;
7027;SDS011;3555;53.248;10.336;2024-02-26T11:58:46;3.60;;;2.20;;
7027;SDS011;3555;53.248;10.336;2024-02-26T12:04:05;3.20;;;2.40;;
7027;SDS011;3555;53.248;10.336;2024-02-26T12:06:39;4.07;;;2.10;;
7027;SDS011;3555;53.248;10.336;2024-02-26T12:09:08;3.87;;;2.40;;
7027;SDS011;3555;53.248;10.336;2024-02-26T12:11:37;5.80;;;2.50;;
7027;SDS011;3555;53.248;10.336;2024-02-26T12:14:05;2.53;;;2.00;;
7027;SDS011;3555;53.248;10.336;2024-02-26T12:16:36;2.93;;;2.07;;
7027;SDS011;3555;53.248;10.336;2024-02-26T12:19:08;2.63;;;2.40;;
7027;SDS011;3555;53.248;10.336;2024-02-26T12:21:36;2.83;;;2.20;;
7027;SDS011;3555;53.248;10.336;2024-02-26T12:24:07;4.03;;;2.37;;
7027;SDS011;3555;53.248;10.336;2024-02-26T12:26:36;3.67;;;2.07;;
7027;SDS011;3555;53.248;10.336;2024-02-26T12:29:03;2.20;;;1.87;;
7027;SDS011;3555;53.248;10.336;2024-02-26T12:31:30;2.70;;;2.30;;
7027;SDS011;3555;53.248;10.336;2024-02-26T12:33:59;2.97;;;2.47;;
7027;SDS011;3555;53.248;10.336;2024-02-26T12:36:26;2.97;;;2.30;;
7027;SDS011;3555;53.248;10.336;2024-02-26T12:38:53;2.70;;;1.90;;
7027;SDS011;3555;53.248;10.336;2024-02-26T12:41:21;3.07;;;2.00;;
7027;SDS011;3555;53.248;10.336;2024-02-26T12:43:48;3.47;;;2.10;;
7027;SDS011;3555;53.248;10.336;2024-02-26T12:46:15;2.20;;;1.90;;
7027;SDS011;3555;53.248;10.336;2024-02-26T12:48:42;2.53;;;2.33;;
7027;SDS011;3555;53.248;10.336;2024-02-26T12:51:12;2.13;;;1.70;;
7027;SDS011;3555;53.248;10.336;2024-02-26T12:53:40;3.10;;;2.13;;
7027;SDS011;3555;53.248;10.336;2024-02-26T12:56:07;4.13;;;2.00;;
7027;SDS011;3555;53.248;10.336;2024-02-26T12:58:37;2.33;;;1.80;;
7027;SDS011;3555;53.248;10.336;2024-02-26T13:01:06;1.90;;;1.70;;
7027;SDS011;3555;53.248;10.336;2024-02-26T13:03:34;4.27;;;1.70;;
7027;SDS011;3555;53.248;10.336;2024-02-26T13:06:02;2.13;;;1.93;;
7027;SDS011;3555;53.248;10.336;2024-02-26T13:08:31;2.53;;;1.90;;
7027;SDS011;3555;53.248;10.336;2024-02-26T13:10:58;2.60;;;2.10;;
7027;SDS011;3555;53.248;10.336;2024-02-26T13:13:26;2.67;;;2.10;;
7027;SDS011;3555;53.248;10.336;2024-02-26T13:16:00;2.13;;;1.90;;
7027;SDS011;3555;53.248;10.336;2024-02-26T13:18:29;2.57;;;2.00;;
7027;SDS011;3555;53.248;10.336;2024-02-26T13:21:05;1.93;;;1.60;;
7027;SDS011;3555;53.248;10.336;2024-02-26T13:23:37;2.37;;;1.80;;
7027;SDS011;3555;53.248;10.336;2024-02-26T13:26:05;2.87;;;1.90;;
7027;SDS011;3555;53.248;10.336;2024-02-26T13:28:32;2.13;;;1.63;;
7027;SDS011;3555;53.248;10.336;2024-02-26T13:31:00;2.93;;;2.33;;
7027;SDS011;3555;53.248;10.336;2024-02-26T13:33:29;2.33;;;1.87;;
7027;SDS011;3555;53.248;10.336;2024-02-26T13:35:57;5.80;;;3.40;;
7027;SDS011;3555;53.248;10.336;2024-02-26T13:38:24;2.30;;;2.10;;
7027;SDS011;3555;53.248;10.336;2024-02-26T13:40:53;2.73;;;2.20;;
7027;SDS011;3555;53.248;10.336;2024-02-26T13:43:20;3.23;;;2.70;;
7027;SDS011;3555;53.248;10.336;2024-02-26T13:45:47;3.27;;;2.43;;
7027;SDS011;3555;53.248;10.336;2024-02-26T13:48:14;2.80;;;2.20;;
7027;SDS011;3555;53.248;10.336;2024-02-26T13:50:41;4.07;;;2.77;;
7027;SDS011;3555;53.248;10.336;2024-02-26T13:53:10;3.77;;;2.90;;
7027;SDS011;3555;53.248;10.336;2024-02-26T13:55:38;3.10;;;2.63;;
7027;SDS011;3555;53.248;10.336;2024-02-26T13:58:09;3.10;;;2.50;;
7027;SDS011;3555;53.248;10.336;2024-02-26T14:00:39;4.03;;;2.83;;
7027;SDS011;3555;53.248;10.336;2024-02-26T14:03:06;2.97;;;2.57;;
7027;SDS011;3555;53.248;10.336;2024-02-26T14:05:33;4.13;;;2.90;;
7027;SDS011;3555;53.248;10.336;2024-02-26T14:08:00;3.80;;;2.87;;
7027;SDS011;3555;53.248;10.336;2024-02-26T14:10:27;3.40;;;2.90;;
7027;SDS011;3555;53.248;10.336;2024-02-26T14:12:55;4.53;;;3.23;;
7027;SDS011;3555;53.248;10.336;2024-02-26T14:15:23;3.80;;;3.40;;
7027;SDS011;3555;53.248;10.336;2024-02-26T14:17:50;3.80;;;3.30;;
7027;SDS011;3555;53.248;10.336;2024-02-26T14:20:21;3.47;;;3.17;;
7027;SDS011;3555;53.248;10.336;2024-02-26T14:22:48;4.63;;;3.40;;
7027;SDS011;3555;53.248;10.336;2024-02-26T14:25:16;5.03;;;3.60;;
7027;SDS011;3555;53.248;10.336;2024-02-26T14:27:43;3.40;;;3.10;;
7027;SDS011;3555;53.248;10.336;2024-02-26T14:30:10;3.90;;;3.50;;
7027;SDS011;3555;53.248;10.336;2024-02-26T14:32:39;4.37;;;3.57;;
7027;SDS011;3555;53.248;10.336;2024-02-26T14:35:06;4.50;;;3.60;;
7027;SDS011;3555;53.248;10.336;2024-02-26T14:37:34;3.30;;;3.00;;
7027;SDS011;3555;53.248;10.336;2024-02-26T14:40:01;4.50;;;3.63;;
7027;SDS011;3555;53.248;10.336;2024-02-26T14:42:28;3.40;;;3.10;;
7027;SDS011;3555;53.248;10.336;2024-02-26T14:44:54;4.23;;;3.30;;
7027;SDS011;3555;53.248;10.336;2024-02-26T14:47:21;3.80;;;3.37;;
7027;SDS011;3555;53.248;10.336;2024-02-26T14:49:49;5.07;;;3.83;;
7027;SDS011;3555;53.248;10.336;2024-02-26T14:52:17;3.77;;;3.37;;
7027;SDS011;3555;53.248;10.336;2024-02-26T14:54:44;4.77;;;3.50;;
7027;SDS011;3555;53.248;10.336;2024-02-26T14:57:10;4.13;;;3.70;;
7027;SDS011;3555;53.248;10.336;2024-02-26T14:59:38;4.80;;;3.80;;
7027;SDS011;3555;53.248;10.336;2024-02-26T15:02:05;4.80;;;4.27;;
7027;SDS011;3555;53.248;10.336;2024-02-26T15:04:34;5.97;;;3.90;;
7027;SDS011;3555;53.248;10.336;2024-02-26T15:07:03;7.00;;;5.03;;
7027;SDS011;3555;53.248;10.336;2024-02-26T15:09:30;8.93;;;5.17;;
7027;SDS011;3555;53.248;10.336;2024-02-26T15:11:57;6.10;;;4.73;;